sensor_id;sensor_type;location;lat;lon;timestamp;P1;durP1;ratioP1;P2;durP2;ratioP2
37641;SDS011;23486;51.956;5.888;2022-09-25T00:01:36;2.67;;;0.50;;
37641;SDS011;23486;51.956;5.888;2022-09-25T00:04:02;3.88;;;0.60;;
37641;SDS011;23486;51.956;5.888;2022-09-25T00:06:28;3.63;;;0.50;;
37641;SDS011;23486;51.956;5.888;2022-09-25T00:08:54;4.90;;;0.70;;
37641;SDS011;23486;51.956;5.888;2022-09-25T00:11:25;4.00;;;0.60;;
37641;SDS011;23486;51.956;5.888;2022-09-25T00:13:54;3.20;;;0.50;;
37641;SDS011;23486;51.956;5.888;2022-09-25T00:16:20;4.10;;;0.63;;
37641;SDS011;23486;51.956;5.888;2022-09-25T00:18:48;5.00;;;0.63;;
37641;SDS011;23486;51.956;5.888;2022-09-25T00:21:33;3.05;;;0.50;;
37641;SDS011;23486;51.956;5.888;2022-09-25T00:24:00;5.28;;;0.57;;
37641;SDS011;23486;51.956;5.888;2022-09-25T00:26:28;5.53;;;0.60;;
37641;SDS011;23486;51.956;5.888;2022-09-25T00:28:56;7.32;;;0.68;;
37641;SDS011;23486;51.956;5.888;2022-09-25T00:31:25;4.80;;;0.50;;
37641;SDS011;23486;51.956;5.888;2022-09-25T00:33:52;3.42;;;0.50;;
37641;SDS011;23486;51.956;5.888;2022-09-25T00:36:18;6.03;;;0.60;;
37641;SDS011;23486;51.956;5.888;2022-09-25T00:38:44;6.53;;;1.48;;
37641;SDS011;23486;51.956;5.888;2022-09-25T00:41:12;2.47;;;0.40;;
37641;SDS011;23486;51.956;5.888;2022-09-25T00:49:03;5.40;;;0.90;;
37641;SDS011;23486;51.956;5.888;2022-09-25T00:51:48;6.65;;;0.93;;
37641;SDS011;23486;51.956;5.888;2022-09-25T00:54:23;4.60;;;0.70;;
37641;SDS011;23486;51.956;5.888;2022-09-25T00:56:52;4.38;;;1.38;;
37641;SDS011;23486;51.956;5.888;2022-09-25T00:59:20;4.43;;;1.20;;
37641;SDS011;23486;51.956;5.888;2022-09-25T01:01:49;5.43;;;0.60;;
37641;SDS011;23486;51.956;5.888;2022-09-25T01:04:15;4.95;;;0.70;;
37641;SDS011;23486;51.956;5.888;2022-09-25T01:06:45;5.25;;;0.80;;
37641;SDS011;23486;51.956;5.888;2022-09-25T01:09:10;4.72;;;0.90;;
37641;SDS011;23486;51.956;5.888;2022-09-25T01:11:36;3.80;;;0.95;;
37641;SDS011;23486;51.956;5.888;2022-09-25T01:14:02;4.65;;;0.73;;
37641;SDS011;23486;51.956;5.888;2022-09-25T01:16:42;7.40;;;1.05;;
37641;SDS011;23486;51.956;5.888;2022-09-25T01:22:14;4.43;;;0.82;;
37641;SDS011;23486;51.956;5.888;2022-09-25T01:25:14;3.53;;;0.60;;
37641;SDS011;23486;51.956;5.888;2022-09-25T01:27:59;6.68;;;0.80;;
37641;SDS011;23486;51.956;5.888;2022-09-25T01:30:51;8.02;;;0.63;;
37641;SDS011;23486;51.956;5.888;2022-09-25T01:33:27;4.28;;;0.70;;
37641;SDS011;23486;51.956;5.888;2022-09-25T01:39:00;3.42;;;0.60;;
37641;SDS011;23486;51.956;5.888;2022-09-25T01:44:20;5.00;;;0.60;;
37641;SDS011;23486;51.956;5.888;2022-09-25T01:46:58;3.38;;;0.57;;
37641;SDS011;23486;51.956;5.888;2022-09-25T01:49:35;4.35;;;0.65;;
37641;SDS011;23486;51.956;5.888;2022-09-25T01:52:09;4.32;;;0.68;;
37641;SDS011;23486;51.956;5.888;2022-09-25T01:54:50;4.07;;;0.60;;
37641;SDS011;23486;51.956;5.888;2022-09-25T01:57:26;5.60;;;0.90;;
37641;SDS011;23486;51.956;5.888;2022-09-25T02:03:10;3.03;;;0.60;;
37641;SDS011;23486;51.956;5.888;2022-09-25T02:05:53;2.55;;;0.80;;
37641;SDS011;23486;51.956;5.888;2022-09-25T02:08:24;3.50;;;0.60;;
37641;SDS011;23486;51.956;5.888;2022-09-25T02:10:59;3.28;;;1.00;;
37641;SDS011;23486;51.956;5.888;2022-09-25T02:13:46;4.43;;;0.70;;
37641;SDS011;23486;51.956;5.888;2022-09-25T02:16:16;4.90;;;0.60;;
37641;SDS011;23486;51.956;5.888;2022-09-25T02:18:47;5.05;;;0.75;;
37641;SDS011;23486;51.956;5.888;2022-09-25T02:21:48;4.05;;;0.73;;
37641;SDS011;23486;51.956;5.888;2022-09-25T02:26:50;3.25;;;0.60;;
37641;SDS011;23486;51.956;5.888;2022-09-25T02:29:16;3.15;;;0.60;;
37641;SDS011;23486;51.956;5.888;2022-09-25T02:31:45;4.97;;;0.77;;
37641;SDS011;23486;51.956;5.888;2022-09-25T02:34:21;3.60;;;0.60;;
37641;SDS011;23486;51.956;5.888;2022-09-25T02:36:47;2.40;;;0.60;;
37641;SDS011;23486;51.956;5.888;2022-09-25T02:39:14;2.00;;;0.65;;
37641;SDS011;23486;51.956;5.888;2022-09-25T02:47:49;2.00;;;0.57;;
37641;SDS011;23486;51.956;5.888;2022-09-25T02:53:41;2.80;;;0.60;;
37641;SDS011;23486;51.956;5.888;2022-09-25T02:58:53;3.22;;;0.70;;
37641;SDS011;23486;51.956;5.888;2022-09-25T03:01:23;2.10;;;0.50;;
37641;SDS011;23486;51.956;5.888;2022-09-25T03:03:52;5.57;;;0.60;;
37641;SDS011;23486;51.956;5.888;2022-09-25T03:06:20;2.40;;;0.55;;
37641;SDS011;23486;51.956;5.888;2022-09-25T03:08:47;2.03;;;0.65;;
37641;SDS011;23486;51.956;5.888;2022-09-25T03:11:21;4.13;;;0.55;;
37641;SDS011;23486;51.956;5.888;2022-09-25T03:13:55;3.08;;;0.70;;
37641;SDS011;23486;51.956;5.888;2022-09-25T03:16:26;3.47;;;0.70;;
37641;SDS011;23486;51.956;5.888;2022-09-25T03:19:21;2.53;;;0.70;;
37641;SDS011;23486;51.956;5.888;2022-09-25T03:21:49;3.53;;;1.00;;
37641;SDS011;23486;51.956;5.888;2022-09-25T03:24:15;4.03;;;1.25;;
37641;SDS011;23486;51.956;5.888;2022-09-25T03:26:44;3.53;;;0.70;;
37641;SDS011;23486;51.956;5.888;2022-09-25T03:29:10;3.05;;;0.65;;
37641;SDS011;23486;51.956;5.888;2022-09-25T03:31:37;24.95;;;1.55;;
37641;SDS011;23486;51.956;5.888;2022-09-25T03:34:03;10.57;;;0.90;;
37641;SDS011;23486;51.956;5.888;2022-09-25T03:36:29;2.78;;;0.60;;
37641;SDS011;23486;51.956;5.888;2022-09-25T03:38:56;3.85;;;0.70;;
37641;SDS011;23486;51.956;5.888;2022-09-25T03:41:26;2.60;;;0.60;;
37641;SDS011;23486;51.956;5.888;2022-09-25T03:43:54;2.90;;;0.50;;
37641;SDS011;23486;51.956;5.888;2022-09-25T03:46:24;1.65;;;0.55;;
37641;SDS011;23486;51.956;5.888;2022-09-25T03:48:54;2.92;;;0.70;;
37641;SDS011;23486;51.956;5.888;2022-09-25T03:51:21;3.20;;;0.60;;
37641;SDS011;23486;51.956;5.888;2022-09-25T03:53:47;2.85;;;0.70;;
37641;SDS011;23486;51.956;5.888;2022-09-25T03:56:17;2.92;;;0.60;;
37641;SDS011;23486;51.956;5.888;2022-09-25T03:58:46;3.55;;;0.70;;
37641;SDS011;23486;51.956;5.888;2022-09-25T04:01:13;6.60;;;1.23;;
37641;SDS011;23486;51.956;5.888;2022-09-25T04:03:40;4.90;;;0.80;;
37641;SDS011;23486;51.956;5.888;2022-09-25T04:06:09;2.63;;;0.77;;
37641;SDS011;23486;51.956;5.888;2022-09-25T04:08:35;3.38;;;0.90;;
37641;SDS011;23486;51.956;5.888;2022-09-25T04:11:01;2.75;;;0.60;;
37641;SDS011;23486;51.956;5.888;2022-09-25T04:13:29;3.95;;;0.70;;
37641;SDS011;23486;51.956;5.888;2022-09-25T04:15:56;1.90;;;0.50;;
37641;SDS011;23486;51.956;5.888;2022-09-25T04:18:23;16.00;;;1.17;;
37641;SDS011;23486;51.956;5.888;2022-09-25T04:20:49;2.33;;;0.60;;
37641;SDS011;23486;51.956;5.888;2022-09-25T04:23:15;3.88;;;0.80;;
37641;SDS011;23486;51.956;5.888;2022-09-25T04:25:41;3.67;;;0.75;;
37641;SDS011;23486;51.956;5.888;2022-09-25T04:28:07;2.70;;;0.70;;
37641;SDS011;23486;51.956;5.888;2022-09-25T04:30:34;4.05;;;0.90;;
37641;SDS011;23486;51.956;5.888;2022-09-25T04:32:59;4.38;;;0.90;;
37641;SDS011;23486;51.956;5.888;2022-09-25T04:35:44;1.80;;;0.70;;
37641;SDS011;23486;51.956;5.888;2022-09-25T04:38:09;5.60;;;0.80;;
37641;SDS011;23486;51.956;5.888;2022-09-25T04:40:35;7.78;;;0.80;;
37641;SDS011;23486;51.956;5.888;2022-09-25T04:43:02;2.22;;;0.70;;
37641;SDS011;23486;51.956;5.888;2022-09-25T04:45:29;2.67;;;0.80;;
37641;SDS011;23486;51.956;5.888;2022-09-25T04:47:58;3.35;;;0.70;;
37641;SDS011;23486;51.956;5.888;2022-09-25T04:50:25;4.40;;;1.40;;
37641;SDS011;23486;51.956;5.888;2022-09-25T04:52:51;3.72;;;0.65;;
37641;SDS011;23486;51.956;5.888;2022-09-25T04:55:21;5.63;;;1.00;;
37641;SDS011;23486;51.956;5.888;2022-09-25T04:57:55;3.58;;;0.80;;
37641;SDS011;23486;51.956;5.888;2022-09-25T05:00:22;4.57;;;0.93;;
37641;SDS011;23486;51.956;5.888;2022-09-25T05:02:50;2.72;;;0.70;;
37641;SDS011;23486;51.956;5.888;2022-09-25T05:05:16;3.20;;;1.00;;
37641;SDS011;23486;51.956;5.888;2022-09-25T05:07:55;4.72;;;1.30;;
37641;SDS011;23486;51.956;5.888;2022-09-25T05:10:26;9.57;;;1.15;;
37641;SDS011;23486;51.956;5.888;2022-09-25T05:12:57;6.60;;;1.00;;
37641;SDS011;23486;51.956;5.888;2022-09-25T05:15:24;5.82;;;1.23;;
37641;SDS011;23486;51.956;5.888;2022-09-25T05:17:58;5.30;;;1.55;;
37641;SDS011;23486;51.956;5.888;2022-09-25T05:20:29;4.07;;;1.17;;
37641;SDS011;23486;51.956;5.888;2022-09-25T05:23:03;5.47;;;1.55;;
37641;SDS011;23486;51.956;5.888;2022-09-25T05:25:29;4.63;;;1.30;;
37641;SDS011;23486;51.956;5.888;2022-09-25T05:27:56;5.95;;;1.48;;
37641;SDS011;23486;51.956;5.888;2022-09-25T05:30:24;3.45;;;1.75;;
37641;SDS011;23486;51.956;5.888;2022-09-25T05:32:51;5.63;;;2.65;;
37641;SDS011;23486;51.956;5.888;2022-09-25T05:35:18;5.45;;;2.38;;
37641;SDS011;23486;51.956;5.888;2022-09-25T05:37:48;5.30;;;2.70;;
37641;SDS011;23486;51.956;5.888;2022-09-25T05:40:14;3.65;;;2.00;;
37641;SDS011;23486;51.956;5.888;2022-09-25T05:42:41;4.78;;;2.42;;
37641;SDS011;23486;51.956;5.888;2022-09-25T05:45:08;7.55;;;3.42;;
37641;SDS011;23486;51.956;5.888;2022-09-25T05:47:35;8.05;;;2.78;;
37641;SDS011;23486;51.956;5.888;2022-09-25T05:50:01;9.60;;;3.28;;
37641;SDS011;23486;51.956;5.888;2022-09-25T05:52:28;5.15;;;3.30;;
37641;SDS011;23486;51.956;5.888;2022-09-25T05:54:55;8.13;;;3.17;;
37641;SDS011;23486;51.956;5.888;2022-09-25T05:57:20;6.97;;;3.63;;
37641;SDS011;23486;51.956;5.888;2022-09-25T05:59:47;8.52;;;3.55;;
37641;SDS011;23486;51.956;5.888;2022-09-25T06:02:16;9.50;;;3.60;;
37641;SDS011;23486;51.956;5.888;2022-09-25T06:04:45;6.00;;;4.05;;
37641;SDS011;23486;51.956;5.888;2022-09-25T06:07:10;7.35;;;3.92;;
37641;SDS011;23486;51.956;5.888;2022-09-25T06:09:36;8.38;;;3.38;;
37641;SDS011;23486;51.956;5.888;2022-09-25T06:12:02;6.25;;;3.25;;
37641;SDS011;23486;51.956;5.888;2022-09-25T06:14:28;7.28;;;2.80;;
37641;SDS011;23486;51.956;5.888;2022-09-25T06:16:54;8.20;;;3.03;;
37641;SDS011;23486;51.956;5.888;2022-09-25T06:19:26;5.68;;;2.88;;
37641;SDS011;23486;51.956;5.888;2022-09-25T06:21:53;6.85;;;2.83;;
37641;SDS011;23486;51.956;5.888;2022-09-25T06:24:20;7.15;;;2.63;;
37641;SDS011;23486;51.956;5.888;2022-09-25T06:26:45;5.85;;;2.83;;
37641;SDS011;23486;51.956;5.888;2022-09-25T06:29:14;5.32;;;2.88;;
37641;SDS011;23486;51.956;5.888;2022-09-25T06:31:40;9.48;;;2.63;;
37641;SDS011;23486;51.956;5.888;2022-09-25T06:34:08;8.82;;;2.33;;
37641;SDS011;23486;51.956;5.888;2022-09-25T06:36:36;9.38;;;2.35;;
37641;SDS011;23486;51.956;5.888;2022-09-25T06:39:02;6.50;;;3.50;;
37641;SDS011;23486;51.956;5.888;2022-09-25T06:41:28;6.47;;;2.50;;
37641;SDS011;23486;51.956;5.888;2022-09-25T06:43:53;6.10;;;2.92;;
37641;SDS011;23486;51.956;5.888;2022-09-25T06:46:19;6.60;;;2.95;;
37641;SDS011;23486;51.956;5.888;2022-09-25T06:48:51;5.15;;;2.60;;
37641;SDS011;23486;51.956;5.888;2022-09-25T06:51:22;8.20;;;3.25;;
37641;SDS011;23486;51.956;5.888;2022-09-25T06:53:51;6.65;;;2.75;;
37641;SDS011;23486;51.956;5.888;2022-09-25T06:56:20;6.97;;;3.35;;
37641;SDS011;23486;51.956;5.888;2022-09-25T06:58:46;8.38;;;2.50;;
37641;SDS011;23486;51.956;5.888;2022-09-25T07:01:12;3.30;;;1.58;;
37641;SDS011;23486;51.956;5.888;2022-09-25T07:03:38;7.28;;;2.15;;
37641;SDS011;23486;51.956;5.888;2022-09-25T07:06:17;9.15;;;2.65;;
37641;SDS011;23486;51.956;5.888;2022-09-25T07:08:48;7.13;;;2.15;;
37641;SDS011;23486;51.956;5.888;2022-09-25T07:11:25;5.22;;;1.98;;
37641;SDS011;23486;51.956;5.888;2022-09-25T07:13:52;6.35;;;1.98;;
37641;SDS011;23486;51.956;5.888;2022-09-25T07:16:29;3.78;;;1.80;;
37641;SDS011;23486;51.956;5.888;2022-09-25T07:18:56;4.93;;;1.83;;
37641;SDS011;23486;51.956;5.888;2022-09-25T07:21:24;5.18;;;1.88;;
37641;SDS011;23486;51.956;5.888;2022-09-25T07:23:53;3.70;;;1.45;;
37641;SDS011;23486;51.956;5.888;2022-09-25T07:26:22;6.78;;;2.13;;
37641;SDS011;23486;51.956;5.888;2022-09-25T07:31:21;9.18;;;2.72;;
37641;SDS011;23486;51.956;5.888;2022-09-25T07:33:48;5.65;;;3.22;;
37641;SDS011;23486;51.956;5.888;2022-09-25T07:36:14;4.30;;;1.50;;
37641;SDS011;23486;51.956;5.888;2022-09-25T07:38:41;9.57;;;2.20;;
37641;SDS011;23486;51.956;5.888;2022-09-25T07:41:09;5.80;;;1.73;;
37641;SDS011;23486;51.956;5.888;2022-09-25T07:43:37;6.65;;;1.92;;
37641;SDS011;23486;51.956;5.888;2022-09-25T07:46:03;8.18;;;1.55;;
37641;SDS011;23486;51.956;5.888;2022-09-25T07:48:29;5.35;;;1.20;;
37641;SDS011;23486;51.956;5.888;2022-09-25T07:51:05;4.32;;;1.10;;
37641;SDS011;23486;51.956;5.888;2022-09-25T07:53:32;6.70;;;1.85;;
37641;SDS011;23486;51.956;5.888;2022-09-25T07:55:58;4.28;;;1.33;;
37641;SDS011;23486;51.956;5.888;2022-09-25T07:58:28;8.18;;;1.33;;
37641;SDS011;23486;51.956;5.888;2022-09-25T08:00:57;6.60;;;1.23;;
37641;SDS011;23486;51.956;5.888;2022-09-25T08:03:24;4.30;;;0.95;;
37641;SDS011;23486;51.956;5.888;2022-09-25T08:05:57;2.85;;;1.20;;
37641;SDS011;23486;51.956;5.888;2022-09-25T08:08:23;5.63;;;1.38;;
37641;SDS011;23486;51.956;5.888;2022-09-25T08:10:49;8.02;;;0.90;;
37641;SDS011;23486;51.956;5.888;2022-09-25T08:13:15;4.00;;;0.75;;
37641;SDS011;23486;51.956;5.888;2022-09-25T08:15:45;6.15;;;0.80;;
37641;SDS011;23486;51.956;5.888;2022-09-25T08:18:12;4.78;;;1.30;;
37641;SDS011;23486;51.956;5.888;2022-09-25T08:20:38;5.85;;;0.90;;
37641;SDS011;23486;51.956;5.888;2022-09-25T08:23:04;3.45;;;0.85;;
37641;SDS011;23486;51.956;5.888;2022-09-25T08:25:30;5.22;;;0.80;;
37641;SDS011;23486;51.956;5.888;2022-09-25T08:27:56;3.17;;;0.50;;
37641;SDS011;23486;51.956;5.888;2022-09-25T08:30:21;6.40;;;0.60;;
37641;SDS011;23486;51.956;5.888;2022-09-25T08:32:47;4.15;;;0.60;;
37641;SDS011;23486;51.956;5.888;2022-09-25T08:35:12;1.98;;;0.50;;
37641;SDS011;23486;51.956;5.888;2022-09-25T08:37:40;4.03;;;0.40;;
37641;SDS011;23486;51.956;5.888;2022-09-25T08:40:11;6.63;;;0.40;;
37641;SDS011;23486;51.956;5.888;2022-09-25T08:42:42;8.85;;;0.50;;
37641;SDS011;23486;51.956;5.888;2022-09-25T08:45:11;7.45;;;0.88;;
37641;SDS011;23486;51.956;5.888;2022-09-25T08:48:16;5.05;;;0.40;;
37641;SDS011;23486;51.956;5.888;2022-09-25T08:51:10;5.75;;;0.45;;
37641;SDS011;23486;51.956;5.888;2022-09-25T08:53:36;4.35;;;0.50;;
37641;SDS011;23486;51.956;5.888;2022-09-25T08:56:04;5.20;;;0.88;;
37641;SDS011;23486;51.956;5.888;2022-09-25T08:59:02;8.77;;;0.70;;
37641;SDS011;23486;51.956;5.888;2022-09-25T09:01:26;4.65;;;0.50;;
37641;SDS011;23486;51.956;5.888;2022-09-25T09:06:43;6.85;;;0.60;;
37641;SDS011;23486;51.956;5.888;2022-09-25T09:09:53;6.72;;;0.40;;
37641;SDS011;23486;51.956;5.888;2022-09-25T09:12:09;4.07;;;0.55;;
37641;SDS011;23486;51.956;5.888;2022-09-25T09:14:46;4.22;;;0.60;;
37641;SDS011;23486;51.956;5.888;2022-09-25T09:17:15;4.07;;;0.45;;
37641;SDS011;23486;51.956;5.888;2022-09-25T09:19:48;4.07;;;0.40;;
37641;SDS011;23486;51.956;5.888;2022-09-25T09:22:30;5.03;;;0.30;;
37641;SDS011;23486;51.956;5.888;2022-09-25T09:25:07;5.63;;;0.52;;
37641;SDS011;23486;51.956;5.888;2022-09-25T09:28:04;3.05;;;0.40;;
37641;SDS011;23486;51.956;5.888;2022-09-25T09:31:12;7.45;;;0.60;;
37641;SDS011;23486;51.956;5.888;2022-09-25T09:44:31;4.15;;;0.50;;
37641;SDS011;23486;51.956;5.888;2022-09-25T09:52:44;2.50;;;0.30;;
37641;SDS011;23486;51.956;5.888;2022-09-25T09:55:26;1.98;;;0.30;;
37641;SDS011;23486;51.956;5.888;2022-09-25T09:58:19;2.60;;;0.30;;
37641;SDS011;23486;51.956;5.888;2022-09-25T10:00:53;3.33;;;0.50;;
37641;SDS011;23486;51.956;5.888;2022-09-25T10:03:29;3.53;;;0.35;;
37641;SDS011;23486;51.956;5.888;2022-09-25T10:06:02;2.97;;;0.30;;
37641;SDS011;23486;51.956;5.888;2022-09-25T10:08:33;4.63;;;0.32;;
37641;SDS011;23486;51.956;5.888;2022-09-25T10:10:59;3.78;;;0.40;;
37641;SDS011;23486;51.956;5.888;2022-09-25T10:13:31;3.08;;;0.30;;
37641;SDS011;23486;51.956;5.888;2022-09-25T10:16:04;3.63;;;0.30;;
37641;SDS011;23486;51.956;5.888;2022-09-25T10:19:21;6.10;;;0.40;;
37641;SDS011;23486;51.956;5.888;2022-09-25T10:21:41;1.92;;;0.30;;
37641;SDS011;23486;51.956;5.888;2022-09-25T10:27:26;2.92;;;0.50;;
37641;SDS011;23486;51.956;5.888;2022-09-25T10:32:34;5.40;;;0.30;;
37641;SDS011;23486;51.956;5.888;2022-09-25T10:37:53;1.15;;;0.20;;
37641;SDS011;23486;51.956;5.888;2022-09-25T10:40:23;3.22;;;0.30;;
37641;SDS011;23486;51.956;5.888;2022-09-25T10:45:32;4.85;;;0.20;;
37641;SDS011;23486;51.956;5.888;2022-09-25T10:47:59;2.38;;;0.15;;
37641;SDS011;23486;51.956;5.888;2022-09-25T10:50:45;3.15;;;0.28;;
37641;SDS011;23486;51.956;5.888;2022-09-25T10:53:33;2.03;;;0.25;;
37641;SDS011;23486;51.956;5.888;2022-09-25T10:56:03;4.85;;;0.30;;
37641;SDS011;23486;51.956;5.888;2022-09-25T10:58:38;2.15;;;0.50;;
37641;SDS011;23486;51.956;5.888;2022-09-25T11:01:14;4.07;;;0.25;;
37641;SDS011;23486;51.956;5.888;2022-09-25T11:03:45;1.02;;;0.20;;
37641;SDS011;23486;51.956;5.888;2022-09-25T11:06:26;1.15;;;0.20;;
37641;SDS011;23486;51.956;5.888;2022-09-25T11:11:32;2.15;;;0.20;;
37641;SDS011;23486;51.956;5.888;2022-09-25T11:13:59;2.20;;;0.40;;
37641;SDS011;23486;51.956;5.888;2022-09-25T11:16:46;2.88;;;0.20;;
37641;SDS011;23486;51.956;5.888;2022-09-25T11:19:18;1.52;;;0.20;;
37641;SDS011;23486;51.956;5.888;2022-09-25T11:24:22;1.95;;;0.13;;
37641;SDS011;23486;51.956;5.888;2022-09-25T11:27:15;2.67;;;0.10;;
37641;SDS011;23486;51.956;5.888;2022-09-25T11:49:29;1.52;;;0.20;;
37641;SDS011;23486;51.956;5.888;2022-09-25T11:57:59;2.53;;;0.20;;
37641;SDS011;23486;51.956;5.888;2022-09-25T12:00:47;1.13;;;0.10;;
37641;SDS011;23486;51.956;5.888;2022-09-25T12:06:27;2.13;;;0.17;;
37641;SDS011;23486;51.956;5.888;2022-09-25T12:17:39;1.10;;;0.13;;
37641;SDS011;23486;51.956;5.888;2022-09-25T12:33:50;4.22;;;0.32;;
37641;SDS011;23486;51.956;5.888;2022-09-25T12:41:34;3.30;;;0.40;;
37641;SDS011;23486;51.956;5.888;2022-09-25T12:44:20;2.85;;;0.22;;
37641;SDS011;23486;51.956;5.888;2022-09-25T12:49:43;1.33;;;0.20;;
37641;SDS011;23486;51.956;5.888;2022-09-25T12:54:57;2.95;;;0.20;;
37641;SDS011;23486;51.956;5.888;2022-09-25T12:57:36;2.15;;;0.20;;
37641;SDS011;23486;51.956;5.888;2022-09-25T13:00:13;1.67;;;0.10;;
37641;SDS011;23486;51.956;5.888;2022-09-25T13:03:22;1.02;;;0.10;;
37641;SDS011;23486;51.956;5.888;2022-09-25T13:06:30;2.83;;;0.10;;
37641;SDS011;23486;51.956;5.888;2022-09-25T13:11:07;2.50;;;0.15;;
37641;SDS011;23486;51.956;5.888;2022-09-25T13:13:58;2.47;;;0.10;;
37641;SDS011;23486;51.956;5.888;2022-09-25T13:16:26;2.20;;;0.10;;
37641;SDS011;23486;51.956;5.888;2022-09-25T13:19:08;1.85;;;0.20;;
37641;SDS011;23486;51.956;5.888;2022-09-25T13:21:39;3.03;;;0.20;;
37641;SDS011;23486;51.956;5.888;2022-09-25T13:24:08;2.50;;;0.30;;
37641;SDS011;23486;51.956;5.888;2022-09-25T13:26:44;1.75;;;0.25;;
37641;SDS011;23486;51.956;5.888;2022-09-25T13:31:46;2.28;;;0.20;;
37641;SDS011;23486;51.956;5.888;2022-09-25T13:34:13;1.90;;;0.25;;
37641;SDS011;23486;51.956;5.888;2022-09-25T13:36:51;2.28;;;0.20;;
37641;SDS011;23486;51.956;5.888;2022-09-25T13:42:14;1.95;;;0.20;;
37641;SDS011;23486;51.956;5.888;2022-09-25T13:44:46;2.47;;;0.20;;
37641;SDS011;23486;51.956;5.888;2022-09-25T13:50:05;1.95;;;0.10;;
37641;SDS011;23486;51.956;5.888;2022-09-25T14:02:57;6.65;;;0.20;;
37641;SDS011;23486;51.956;5.888;2022-09-25T14:05:30;1.10;;;0.10;;
37641;SDS011;23486;51.956;5.888;2022-09-25T14:08:05;2.20;;;0.20;;
37641;SDS011;23486;51.956;5.888;2022-09-25T14:10:36;1.67;;;0.20;;
37641;SDS011;23486;51.956;5.888;2022-09-25T14:13:15;1.52;;;0.10;;
37641;SDS011;23486;51.956;5.888;2022-09-25T14:15:46;4.20;;;0.20;;
37641;SDS011;23486;51.956;5.888;2022-09-25T14:18:15;3.40;;;0.30;;
37641;SDS011;23486;51.956;5.888;2022-09-25T14:23:23;3.60;;;0.10;;
37641;SDS011;23486;51.956;5.888;2022-09-25T14:28:32;2.47;;;0.10;;
37641;SDS011;23486;51.956;5.888;2022-09-25T14:40:02;1.65;;;0.20;;
37641;SDS011;23486;51.956;5.888;2022-09-25T14:48:15;4.22;;;0.17;;
37641;SDS011;23486;51.956;5.888;2022-09-25T14:50:45;0.70;;;0.10;;
37641;SDS011;23486;51.956;5.888;2022-09-25T14:53:27;2.03;;;0.15;;
37641;SDS011;23486;51.956;5.888;2022-09-25T14:55:55;2.67;;;0.10;;
37641;SDS011;23486;51.956;5.888;2022-09-25T14:58:26;2.65;;;0.10;;
37641;SDS011;23486;51.956;5.888;2022-09-25T15:00:57;2.97;;;0.10;;
37641;SDS011;23486;51.956;5.888;2022-09-25T15:03:31;1.35;;;0.17;;
37641;SDS011;23486;51.956;5.888;2022-09-25T15:06:01;2.70;;;0.25;;
37641;SDS011;23486;51.956;5.888;2022-09-25T15:08:39;2.22;;;0.20;;
37641;SDS011;23486;51.956;5.888;2022-09-25T15:11:13;1.88;;;0.20;;
37641;SDS011;23486;51.956;5.888;2022-09-25T15:13:40;1.42;;;0.15;;
37641;SDS011;23486;51.956;5.888;2022-09-25T15:16:11;1.40;;;0.10;;
37641;SDS011;23486;51.956;5.888;2022-09-25T15:18:59;1.70;;;0.40;;
37641;SDS011;23486;51.956;5.888;2022-09-25T15:21:31;0.88;;;0.20;;
37641;SDS011;23486;51.956;5.888;2022-09-25T15:24:00;3.00;;;0.10;;
37641;SDS011;23486;51.956;5.888;2022-09-25T15:26:29;0.50;;;0.08;;
37641;SDS011;23486;51.956;5.888;2022-09-25T15:28:56;1.35;;;0.10;;
37641;SDS011;23486;51.956;5.888;2022-09-25T15:31:22;1.25;;;0.10;;
37641;SDS011;23486;51.956;5.888;2022-09-25T15:36:49;3.60;;;0.10;;
37641;SDS011;23486;51.956;5.888;2022-09-25T15:39:24;0.93;;;0.10;;
37641;SDS011;23486;51.956;5.888;2022-09-25T15:41:51;1.52;;;0.10;;
37641;SDS011;23486;51.956;5.888;2022-09-25T15:44:24;0.95;;;0.15;;
37641;SDS011;23486;51.956;5.888;2022-09-25T15:46:53;1.73;;;0.30;;
37641;SDS011;23486;51.956;5.888;2022-09-25T15:49:25;3.67;;;0.20;;
37641;SDS011;23486;51.956;5.888;2022-09-25T15:51:56;0.80;;;0.20;;
37641;SDS011;23486;51.956;5.888;2022-09-25T15:54:37;3.05;;;0.70;;
37641;SDS011;23486;51.956;5.888;2022-09-25T15:57:09;1.42;;;0.30;;
37641;SDS011;23486;51.956;5.888;2022-09-25T15:59:41;1.45;;;0.30;;
37641;SDS011;23486;51.956;5.888;2022-09-25T16:02:32;2.38;;;0.10;;
37641;SDS011;23486;51.956;5.888;2022-09-25T16:05:20;2.55;;;0.20;;
37641;SDS011;23486;51.956;5.888;2022-09-25T16:07:53;1.10;;;0.10;;
37641;SDS011;23486;51.956;5.888;2022-09-25T16:10:39;1.50;;;0.20;;
37641;SDS011;23486;51.956;5.888;2022-09-25T16:13:14;1.90;;;0.40;;
37641;SDS011;23486;51.956;5.888;2022-09-25T16:15:48;1.27;;;0.32;;
37641;SDS011;23486;51.956;5.888;2022-09-25T16:18:23;1.10;;;0.20;;
37641;SDS011;23486;51.956;5.888;2022-09-25T16:23:33;2.22;;;0.22;;
37641;SDS011;23486;51.956;5.888;2022-09-25T16:26:02;0.80;;;0.20;;
37641;SDS011;23486;51.956;5.888;2022-09-25T16:28:29;0.68;;;0.20;;
37641;SDS011;23486;51.956;5.888;2022-09-25T16:31:05;1.38;;;0.38;;
37641;SDS011;23486;51.956;5.888;2022-09-25T16:33:39;1.10;;;0.20;;
37641;SDS011;23486;51.956;5.888;2022-09-25T16:36:13;0.93;;;0.20;;
37641;SDS011;23486;51.956;5.888;2022-09-25T16:38:41;1.63;;;0.20;;
37641;SDS011;23486;51.956;5.888;2022-09-25T16:41:28;1.38;;;0.10;;
37641;SDS011;23486;51.956;5.888;2022-09-25T16:44:02;1.48;;;0.20;;
37641;SDS011;23486;51.956;5.888;2022-09-25T16:46:31;1.50;;;0.20;;
37641;SDS011;23486;51.956;5.888;2022-09-25T16:48:59;1.30;;;0.28;;
37641;SDS011;23486;51.956;5.888;2022-09-25T16:51:25;1.38;;;0.20;;
37641;SDS011;23486;51.956;5.888;2022-09-25T16:53:54;1.95;;;0.28;;
37641;SDS011;23486;51.956;5.888;2022-09-25T16:56:22;1.80;;;0.30;;
37641;SDS011;23486;51.956;5.888;2022-09-25T16:58:53;0.75;;;0.20;;
37641;SDS011;23486;51.956;5.888;2022-09-25T17:01:19;1.85;;;0.35;;
37641;SDS011;23486;51.956;5.888;2022-09-25T17:03:46;3.03;;;0.40;;
37641;SDS011;23486;51.956;5.888;2022-09-25T17:08:42;1.83;;;0.28;;
37641;SDS011;23486;51.956;5.888;2022-09-25T17:11:17;2.50;;;0.30;;
37641;SDS011;23486;51.956;5.888;2022-09-25T17:13:44;1.98;;;0.30;;
37641;SDS011;23486;51.956;5.888;2022-09-25T17:16:10;0.75;;;0.30;;
37641;SDS011;23486;51.956;5.888;2022-09-25T17:18:35;1.50;;;0.30;;
37641;SDS011;23486;51.956;5.888;2022-09-25T17:21:02;1.77;;;0.30;;
37641;SDS011;23486;51.956;5.888;2022-09-25T17:23:31;1.75;;;0.30;;
37641;SDS011;23486;51.956;5.888;2022-09-25T17:26:09;1.00;;;0.30;;
37641;SDS011;23486;51.956;5.888;2022-09-25T17:28:47;2.25;;;0.30;;
37641;SDS011;23486;51.956;5.888;2022-09-25T17:31:15;0.85;;;0.30;;
37641;SDS011;23486;51.956;5.888;2022-09-25T17:33:44;2.55;;;0.40;;
37641;SDS011;23486;51.956;5.888;2022-09-25T17:36:13;1.45;;;0.30;;
37641;SDS011;23486;51.956;5.888;2022-09-25T17:38:39;1.92;;;0.50;;
37641;SDS011;23486;51.956;5.888;2022-09-25T17:41:06;1.85;;;0.45;;
37641;SDS011;23486;51.956;5.888;2022-09-25T17:43:44;2.88;;;0.55;;
37641;SDS011;23486;51.956;5.888;2022-09-25T17:46:10;1.48;;;0.50;;
37641;SDS011;23486;51.956;5.888;2022-09-25T17:48:38;1.60;;;0.50;;
37641;SDS011;23486;51.956;5.888;2022-09-25T17:51:17;3.20;;;0.65;;
37641;SDS011;23486;51.956;5.888;2022-09-25T17:53:44;3.10;;;0.60;;
37641;SDS011;23486;51.956;5.888;2022-09-25T17:56:12;3.72;;;0.60;;
37641;SDS011;23486;51.956;5.888;2022-09-25T17:58:38;2.78;;;0.57;;
37641;SDS011;23486;51.956;5.888;2022-09-25T18:01:11;3.50;;;0.88;;
37641;SDS011;23486;51.956;5.888;2022-09-25T18:03:38;2.17;;;0.70;;
37641;SDS011;23486;51.956;5.888;2022-09-25T18:06:04;3.33;;;1.13;;
37641;SDS011;23486;51.956;5.888;2022-09-25T18:08:30;3.08;;;0.70;;
37641;SDS011;23486;51.956;5.888;2022-09-25T18:10:56;3.47;;;1.23;;
37641;SDS011;23486;51.956;5.888;2022-09-25T18:13:22;3.25;;;0.90;;
37641;SDS011;23486;51.956;5.888;2022-09-25T18:15:50;4.53;;;1.13;;